createdAt,value
2022-11-20T00:01:14.392Z,80.79
2022-11-20T00:03:41.160Z,80.46
2022-11-20T00:06:11.331Z,80.70
2022-11-20T00:08:37.789Z,80.64
2022-11-20T00:11:15.342Z,80.31
2022-11-20T00:13:42.880Z,80.66
2022-11-20T00:16:14.200Z,80.66
2022-11-20T00:18:40.873Z,80.25
2022-11-20T00:21:11.332Z,80.45
2022-11-20T00:23:37.875Z,81.02
2022-11-20T00:26:06.479Z,80.55
2022-11-20T00:28:32.950Z,80.80
2022-11-20T00:31:07.644Z,80.54
2022-11-20T00:33:34.165Z,80.47
2022-11-20T00:36:05.535Z,81.33
2022-11-20T00:38:33.103Z,80.73
2022-11-20T00:41:01.121Z,80.98
2022-11-20T00:43:28.047Z,80.52
2022-11-20T00:45:59.261Z,80.81
2022-11-20T00:48:25.830Z,80.87
2022-11-20T00:50:52.212Z,80.87
2022-11-20T00:53:18.638Z,80.96
2022-11-20T00:55:57.049Z,80.02
2022-11-20T00:58:24.936Z,80.46
2022-11-20T01:00:52.145Z,80.46
2022-11-20T01:03:22.847Z,80.33
2022-11-20T01:05:53.089Z,80.55
2022-11-20T01:08:19.521Z,80.37
2022-11-20T01:10:45.899Z,79.92
2022-11-20T01:13:44.522Z,80.49
2022-11-20T01:16:17.212Z,80.69
2022-11-20T01:18:48.257Z,80.07
2022-11-20T01:21:21.241Z,80.67
2022-11-20T01:23:48.986Z,79.94
2022-11-20T01:26:18.053Z,80.18
2022-11-20T01:28:44.734Z,80.27
2022-11-20T01:31:12.930Z,79.68
2022-11-20T01:33:40.453Z,79.51
2022-11-20T01:36:07.914Z,79.29
2022-11-20T01:38:34.860Z,79.47
2022-11-20T01:41:01.232Z,78.91
2022-11-20T01:43:27.857Z,79.05
2022-11-20T01:45:54.232Z,79.47
2022-11-20T01:48:23.410Z,79.53
2022-11-20T01:50:52.072Z,79.04
2022-11-20T01:53:22.437Z,79.29
2022-11-20T01:55:52.756Z,79.72
2022-11-20T01:58:23.350Z,79.38
2022-11-20T02:00:49.884Z,79.13
2022-11-20T02:03:20.745Z,79.22
2022-11-20T02:06:12.773Z,79.48
2022-11-20T02:08:39.847Z,78.83
2022-11-20T02:11:06.530Z,78.98
2022-11-20T02:13:46.513Z,78.73
2022-11-20T02:16:26.242Z,78.80
2022-11-20T02:18:55.595Z,80.04
2022-11-20T02:21:57.118Z,79.76
2022-11-20T02:24:24.189Z,79.65
2022-11-20T02:27:14.783Z,80.59
2022-11-20T02:29:59.878Z,80.55
2022-11-20T02:32:31.890Z,80.90
2022-11-20T02:34:58.670Z,80.96
2022-11-20T02:37:31.505Z,81.17
2022-11-20T02:39:58.258Z,80.97
2022-11-20T02:42:24.704Z,81.00
2022-11-20T02:44:51.084Z,81.12
2022-11-20T02:47:17.477Z,81.19
2022-11-20T02:49:43.907Z,80.81
2022-11-20T02:52:10.308Z,80.89
2022-11-20T02:54:36.695Z,80.97
2022-11-20T02:57:03.245Z,81.38
2022-11-20T02:59:29.666Z,81.30
2022-11-20T03:01:56.067Z,80.87
2022-11-20T03:04:22.548Z,81.05
2022-11-20T03:06:48.947Z,81.03
2022-11-20T03:09:15.360Z,80.90
2022-11-20T03:11:41.735Z,80.77
2022-11-20T03:14:08.165Z,80.83
2022-11-20T03:16:34.573Z,80.63
2022-11-20T03:19:01.102Z,80.51
2022-11-20T03:21:27.756Z,79.62
2022-11-20T03:23:55.369Z,80.41
2022-11-20T03:26:24.808Z,80.54
2022-11-20T03:28:57.034Z,79.90
2022-11-20T03:31:27.677Z,80.19
2022-11-20T03:33:54.315Z,80.46
2022-11-20T03:36:21.912Z,80.27
2022-11-20T03:38:49.546Z,80.32
2022-11-20T03:41:19.186Z,80.56
2022-11-20T03:43:50.290Z,80.46
2022-11-20T03:46:17.266Z,80.39
2022-11-20T03:48:47.479Z,80.42
2022-11-20T03:51:19.404Z,80.38
2022-11-20T03:53:47.934Z,80.27
2022-11-20T03:56:17.469Z,80.36
2022-11-20T03:58:44.388Z,80.99
2022-11-20T04:01:17.720Z,80.19
2022-11-20T04:03:45.280Z,80.31
2022-11-20T04:06:15.499Z,80.39
2022-11-20T04:08:42.081Z,80.31
2022-11-20T04:11:19.652Z,80.08
2022-11-20T04:13:54.686Z,80.70
2022-11-20T04:16:22.415Z,80.08
2022-11-20T04:18:55.817Z,80.32
2022-11-20T04:21:22.478Z,80.35
2022-11-20T04:23:51.754Z,79.94
2022-11-20T04:26:18.292Z,79.90
2022-11-20T04:28:44.730Z,80.47
2022-11-20T04:31:14.584Z,80.37
2022-11-20T04:33:41.839Z,80.22
2022-11-20T04:36:19.158Z,80.24
2022-11-20T04:38:46.150Z,80.94
2022-11-20T04:41:20.902Z,80.36
2022-11-20T04:43:49.617Z,79.97
2022-11-20T04:46:16.635Z,80.84
2022-11-20T04:48:43.071Z,80.36
2022-11-20T04:51:09.534Z,80.80
2022-11-20T04:53:36.030Z,80.45
2022-11-20T04:56:08.308Z,81.08
2022-11-20T04:58:35.434Z,81.19
2022-11-20T05:01:14.062Z,80.88
2022-11-20T05:03:45.135Z,80.98
2022-11-20T05:06:13.806Z,81.26
2022-11-20T05:08:40.973Z,80.38
2022-11-20T05:11:12.864Z,80.26
2022-11-20T05:13:39.880Z,79.80
2022-11-20T05:16:12.261Z,80.56
2022-11-20T05:18:39.969Z,80.13
2022-11-20T05:21:07.616Z,80.20
2022-11-20T05:23:34.641Z,80.27
2022-11-20T05:26:01.721Z,80.34
2022-11-20T05:28:29.479Z,80.58
2022-11-20T05:30:55.893Z,80.35
2022-11-20T05:33:22.829Z,79.88
2022-11-20T05:35:49.508Z,79.73
2022-11-20T05:38:16.177Z,80.33
2022-11-20T05:40:42.553Z,80.23
2022-11-20T05:43:08.949Z,80.33
2022-11-20T05:45:35.394Z,79.89
2022-11-20T05:48:02.159Z,79.92
2022-11-20T05:50:29.109Z,79.57
2022-11-20T05:52:55.785Z,79.94
2022-11-20T05:55:22.324Z,80.04
2022-11-20T05:57:48.727Z,79.12
2022-11-20T06:00:15.817Z,79.88
2022-11-20T06:02:42.244Z,79.82
2022-11-20T06:05:09.032Z,79.68
2022-11-20T06:07:35.469Z,79.45
2022-11-20T06:10:01.937Z,79.48
2022-11-20T06:12:28.273Z,79.53
2022-11-20T06:14:54.691Z,79.65
2022-11-20T06:17:21.075Z,79.74
2022-11-20T06:19:47.441Z,79.12
2022-11-20T06:22:14.229Z,79.11
2022-11-20T06:24:40.642Z,79.50
2022-11-20T06:27:06.997Z,79.72
2022-11-20T06:29:34.212Z,79.02
2022-11-20T06:32:00.882Z,79.34
2022-11-20T06:34:27.329Z,79.05
2022-11-20T06:36:53.764Z,80.07
2022-11-20T06:39:20.700Z,79.42
2022-11-20T06:41:47.251Z,79.65
2022-11-20T06:44:13.717Z,79.45
2022-11-20T06:46:40.109Z,79.48
2022-11-20T06:49:06.930Z,79.96
2022-11-20T06:51:33.439Z,80.07
2022-11-20T06:54:01.844Z,79.65
2022-11-20T06:56:28.888Z,79.89
2022-11-20T06:58:55.437Z,80.41
2022-11-20T07:01:21.898Z,80.07
2022-11-20T07:03:54.185Z,81.30
2022-11-20T07:06:21.116Z,81.39
2022-11-20T07:08:48.002Z,81.89
2022-11-20T07:11:14.428Z,81.07
2022-11-20T07:13:40.932Z,81.25
2022-11-20T07:16:08.861Z,81.11
2022-11-20T07:18:35.810Z,81.29
2022-11-20T07:21:07.392Z,80.56
2022-11-20T07:23:34.100Z,80.21
2022-11-20T07:26:08.194Z,79.50
2022-11-20T07:28:34.941Z,79.64
2022-11-20T07:31:01.403Z,79.29
2022-11-20T07:33:27.811Z,78.76
2022-11-20T07:35:54.331Z,79.14
2022-11-20T07:38:20.736Z,78.89
2022-11-20T07:40:47.115Z,79.48
2022-11-20T07:43:13.478Z,78.50
2022-11-20T07:45:39.885Z,77.64
2022-11-20T07:48:06.294Z,78.08
2022-11-20T07:50:32.742Z,77.57
2022-11-20T07:53:05.928Z,78.09
2022-11-20T07:55:33.057Z,78.21
2022-11-20T07:57:59.788Z,81.33
2022-11-20T08:00:27.686Z,82.38
2022-11-20T08:02:54.426Z,77.35
2022-11-20T08:05:21.403Z,78.32
2022-11-20T08:07:47.996Z,77.52
2022-11-20T08:10:16.905Z,77.28
2022-11-20T08:13:10.124Z,77.46
2022-11-20T08:15:37.730Z,77.90
2022-11-20T08:20:56.634Z,77.81
2022-11-20T08:23:23.837Z,77.50
2022-11-20T08:25:51.943Z,77.94
2022-11-20T08:28:21.681Z,78.94
2022-11-20T08:30:49.412Z,80.89
2022-11-20T08:33:15.867Z,77.77
2022-11-20T08:35:43.477Z,77.93
2022-11-20T08:38:10.307Z,76.99
2022-11-20T08:40:36.700Z,77.70
2022-11-20T08:43:03.110Z,77.84
2022-11-20T08:45:33.657Z,78.48
2022-11-20T08:48:02.544Z,77.76
2022-11-20T08:50:29.289Z,76.88
2022-11-20T08:52:55.640Z,77.64
2022-11-20T08:55:22.030Z,77.57
2022-11-20T08:57:51.029Z,77.56
2022-11-20T09:00:18.180Z,78.14
2022-11-20T09:02:44.580Z,78.00
2022-11-20T09:05:10.953Z,78.29
2022-11-20T09:07:37.398Z,78.34
2022-11-20T09:10:23.026Z,78.69
2022-11-20T09:12:52.548Z,77.99
2022-11-20T09:15:19.997Z,78.81
2022-11-20T09:17:59.211Z,78.54
2022-11-20T09:20:26.448Z,78.60
2022-11-20T09:22:52.840Z,78.35
2022-11-20T09:25:19.493Z,78.30
2022-11-20T09:27:47.075Z,78.28
2022-11-20T09:30:15.321Z,78.23
2022-11-20T09:32:42.521Z,78.17
2022-11-20T09:35:09.586Z,78.21
2022-11-20T09:37:35.955Z,78.15
2022-11-20T09:40:02.592Z,78.16
2022-11-20T09:42:32.728Z,77.58
2022-11-20T09:45:24.808Z,77.23
2022-11-20T09:48:15.510Z,77.03
2022-11-20T09:51:02.011Z,76.96
2022-11-20T09:53:53.815Z,77.32
2022-11-20T09:56:22.807Z,76.82
2022-11-20T09:58:53.382Z,77.46
2022-11-20T10:01:24.360Z,77.15
2022-11-20T10:04:05.388Z,75.79
2022-11-20T10:06:45.257Z,76.08
2022-11-20T10:09:24.371Z,75.46
2022-11-20T10:12:18.921Z,75.03
2022-11-20T10:15:03.672Z,74.80
2022-11-20T10:17:48.890Z,75.32
2022-11-20T10:20:30.573Z,75.19
2022-11-20T10:23:06.046Z,74.90
2022-11-20T10:25:42.875Z,74.96
2022-11-20T10:28:31.556Z,75.25
2022-11-20T10:31:03.779Z,74.99
2022-11-20T10:34:04.935Z,74.86
2022-11-20T10:36:34.540Z,74.70
2022-11-20T10:39:25.521Z,73.76
2022-11-20T10:41:54.621Z,74.11
2022-11-20T10:44:56.252Z,73.18
2022-11-20T10:47:23.276Z,74.15
2022-11-20T10:49:54.246Z,73.26
2022-11-20T10:52:29.812Z,73.21
2022-11-20T10:55:02.593Z,72.89
2022-11-20T10:57:53.742Z,71.81
2022-11-20T11:00:20.157Z,72.34
2022-11-20T11:02:54.363Z,72.50
2022-11-20T11:05:44.075Z,72.86
2022-11-20T11:08:14.970Z,72.34
2022-11-20T11:10:52.299Z,73.07
2022-11-20T11:13:25.262Z,73.19
2022-11-20T11:15:52.384Z,72.32
2022-11-20T11:18:32.708Z,72.58
2022-11-20T11:21:01.936Z,72.15
2022-11-20T11:23:34.269Z,71.47
2022-11-20T11:26:02.589Z,71.54
2022-11-20T11:28:29.803Z,72.16
2022-11-20T11:30:56.891Z,72.66
2022-11-20T11:33:34.705Z,72.19
2022-11-20T11:36:04.536Z,72.57
2022-11-20T11:44:16.226Z,74.27
2022-11-20T11:46:54.293Z,74.27
2022-11-20T11:49:21.354Z,74.73
2022-11-20T11:51:54.337Z,74.06
2022-11-20T11:54:25.664Z,74.25
2022-11-20T11:56:52.623Z,74.35
2022-11-20T11:59:35.318Z,74.35
2022-11-20T12:02:13.714Z,74.70
2022-11-20T12:04:56.850Z,74.80
2022-11-20T12:07:47.115Z,74.97
2022-11-20T12:10:21.299Z,74.59
2022-11-20T12:12:56.811Z,74.92
2022-11-20T12:15:31.125Z,75.34
2022-11-20T12:17:57.702Z,75.07
2022-11-20T12:20:29.993Z,75.16
2022-11-20T12:23:06.116Z,75.81
2022-11-20T12:25:36.558Z,75.45
2022-11-20T12:28:46.656Z,75.40
2022-11-20T12:31:40.257Z,75.13
2022-11-20T12:34:16.346Z,75.51
2022-11-20T12:36:57.702Z,75.89
2022-11-20T12:39:36.575Z,76.13
2022-11-20T12:42:43.160Z,76.02
2022-11-20T12:45:29.784Z,76.13
2022-11-20T12:48:31.513Z,76.44
2022-11-20T12:51:16.463Z,76.80
2022-11-20T12:53:54.976Z,76.27
2022-11-20T12:56:43.858Z,76.95
2022-11-20T12:59:34.881Z,76.60
2022-11-20T13:02:24.061Z,76.70
2022-11-20T13:05:05.395Z,76.91
2022-11-20T13:07:34.933Z,76.98
2022-11-20T13:10:02.067Z,77.44
2022-11-20T13:12:36.460Z,76.86
2022-11-20T13:15:25.632Z,77.39
2022-11-20T13:18:00.119Z,77.86
2022-11-20T13:20:27.789Z,77.27
2022-11-20T13:22:56.021Z,77.17
2022-11-20T13:25:29.808Z,77.54
2022-11-20T13:27:58.525Z,77.56
2022-11-20T13:30:29.999Z,77.33
2022-11-20T13:33:09.149Z,77.32
2022-11-20T13:35:41.432Z,77.76
2022-11-20T13:38:13.742Z,77.12
2022-11-20T13:41:24.671Z,76.71
2022-11-20T13:43:53.099Z,76.46
2022-11-20T13:46:25.377Z,76.39
2022-11-20T13:48:54.475Z,77.07
2022-11-20T13:51:33.460Z,76.82
2022-11-20T13:54:15.866Z,76.50
2022-11-20T13:56:52.803Z,76.54
2022-11-20T13:59:40.829Z,76.31
2022-11-20T14:02:18.972Z,76.50
2022-11-20T14:04:51.896Z,76.13
2022-11-20T14:07:21.494Z,75.69
2022-11-20T14:09:53.624Z,75.58
2022-11-20T14:12:23.846Z,76.07
2022-11-20T14:14:55.326Z,76.01
2022-11-20T14:17:32.701Z,75.94
2022-11-20T14:20:02.925Z,76.23
2022-11-20T14:22:29.356Z,75.31
2022-11-20T14:25:19.583Z,75.78
2022-11-20T14:27:51.484Z,75.63
2022-11-20T14:30:20.839Z,75.84
2022-11-20T14:32:48.636Z,75.65
2022-11-20T14:35:31.507Z,76.28
2022-11-20T14:37:58.568Z,75.94
2022-11-20T14:40:25.157Z,76.34
2022-11-20T14:42:51.547Z,76.79
2022-11-20T14:45:19.205Z,77.19
2022-11-20T14:47:46.517Z,77.53
2022-11-20T14:50:23.669Z,77.41
2022-11-20T14:52:58.027Z,77.22
2022-11-20T14:55:33.093Z,77.44
2022-11-20T14:58:02.913Z,77.95
2022-11-20T15:00:31.196Z,77.91
2022-11-20T15:02:58.066Z,78.49
2022-11-20T15:05:47.376Z,78.54
2022-11-20T15:08:15.127Z,78.20
2022-11-20T15:10:52.722Z,78.94
2022-11-20T15:13:35.109Z,78.47
2022-11-20T15:16:02.414Z,78.32
2022-11-20T15:18:32.081Z,78.54
2022-11-20T15:21:02.108Z,78.52
2022-11-20T15:23:28.675Z,78.38
2022-11-20T15:25:55.666Z,78.92
2022-11-20T15:28:27.277Z,78.51
2022-11-20T15:30:53.645Z,78.53
2022-11-20T15:33:20.007Z,78.60
2022-11-20T15:35:46.457Z,78.88
2022-11-20T15:38:12.849Z,78.84
2022-11-20T15:40:39.232Z,78.64
2022-11-20T15:43:13.425Z,78.11
2022-11-20T15:45:45.740Z,78.64
2022-11-20T15:48:20.170Z,78.43
2022-11-20T15:51:02.292Z,78.97
2022-11-20T15:53:28.729Z,79.35
2022-11-20T15:55:55.256Z,79.37
2022-11-20T15:58:23.786Z,78.92
2022-11-20T16:00:50.166Z,78.62
2022-11-20T16:03:17.726Z,78.68
2022-11-20T16:05:44.598Z,78.22
2022-11-20T16:08:11.985Z,77.81
2022-11-20T16:10:38.775Z,78.48
2022-11-20T16:13:24.842Z,78.64
2022-11-20T16:15:57.095Z,78.44
2022-11-20T16:18:24.551Z,77.76
2022-11-20T16:20:53.578Z,77.69
2022-11-20T16:23:21.188Z,77.13
2022-11-20T16:25:48.145Z,77.70
2022-11-20T16:28:18.845Z,76.98
2022-11-20T16:30:46.864Z,76.83
2022-11-20T16:33:16.079Z,77.00
2022-11-20T16:35:42.497Z,76.44
2022-11-20T16:38:08.859Z,76.46
2022-11-20T16:40:35.412Z,76.73
2022-11-20T16:43:10.827Z,76.85
2022-11-20T16:45:44.971Z,77.62
2022-11-20T16:48:16.086Z,77.70
2022-11-20T16:50:51.244Z,77.99
2022-11-20T16:53:19.058Z,78.02
2022-11-20T16:55:46.200Z,78.29
2022-11-20T16:58:13.361Z,77.72
2022-11-20T17:00:40.576Z,77.66
2022-11-20T17:03:07.608Z,78.10
2022-11-20T17:05:35.002Z,78.13
2022-11-20T17:08:01.657Z,78.10
2022-11-20T17:10:28.169Z,78.27
2022-11-20T17:12:54.569Z,78.33
2022-11-20T17:15:20.945Z,78.39
2022-11-20T17:17:47.282Z,78.13
2022-11-20T17:20:13.735Z,78.59
2022-11-20T17:22:40.096Z,78.93
2022-11-20T17:25:06.662Z,78.82
2022-11-20T17:27:33.657Z,78.82
2022-11-20T17:30:00.079Z,78.99
2022-11-20T17:32:26.446Z,79.29
2022-11-20T17:34:52.814Z,79.03
2022-11-20T17:37:19.155Z,78.87
2022-11-20T17:39:45.578Z,78.76
2022-11-20T17:42:26.978Z,79.04
2022-11-20T17:44:53.401Z,79.47
2022-11-20T17:47:19.811Z,79.57
2022-11-20T17:49:46.177Z,79.50
2022-11-20T17:52:12.664Z,79.60
2022-11-20T17:54:39.016Z,79.37
2022-11-20T17:57:24.807Z,79.86
2022-11-20T17:59:51.278Z,80.40
2022-11-20T18:02:17.769Z,80.43
2022-11-20T18:04:44.995Z,80.59
2022-11-20T18:07:11.399Z,80.92
2022-11-20T18:09:37.771Z,80.67
2022-11-20T18:12:04.411Z,81.44
2022-11-20T18:14:34.661Z,81.06
2022-11-20T18:17:07.310Z,82.21
2022-11-20T18:19:41.236Z,82.20
2022-11-20T18:22:16.067Z,80.22
2022-11-20T18:24:43.139Z,80.50
2022-11-20T18:27:16.254Z,80.43
2022-11-20T18:29:42.810Z,81.08
2022-11-20T18:32:09.170Z,80.90
2022-11-20T18:34:35.547Z,80.43
2022-11-20T18:37:01.981Z,79.95
2022-11-20T18:39:28.595Z,80.83
2022-11-20T18:42:13.345Z,80.21
2022-11-20T18:44:51.622Z,80.18
2022-11-20T18:47:23.071Z,80.15
2022-11-20T18:49:52.641Z,80.54
2022-11-20T18:52:37.700Z,80.50
2022-11-20T18:55:05.601Z,80.73
2022-11-20T18:57:32.732Z,80.52
2022-11-20T19:00:03.480Z,80.77
2022-11-20T19:02:40.638Z,80.85
2022-11-20T19:05:08.225Z,81.06
2022-11-20T19:07:34.769Z,81.07
2022-11-20T19:10:03.953Z,80.87
2022-11-20T19:12:31.399Z,80.59
2022-11-20T19:14:57.934Z,80.97
2022-11-20T19:17:24.287Z,83.17
2022-11-20T19:19:51.081Z,82.02
2022-11-20T19:22:17.515Z,81.56
2022-11-20T19:24:43.866Z,82.43
2022-11-20T19:27:10.289Z,82.56
2022-11-20T19:29:36.657Z,82.93
2022-11-20T19:32:04.424Z,83.01
2022-11-20T19:34:31.385Z,83.36
2022-11-20T19:36:58.008Z,83.48
2022-11-20T19:39:24.626Z,83.57
2022-11-20T19:41:51.173Z,83.26
2022-11-20T19:44:17.875Z,83.28
2022-11-20T19:46:44.509Z,83.59
2022-11-20T19:49:13.272Z,83.74
2022-11-20T19:51:45.531Z,83.61
2022-11-20T19:54:11.953Z,84.22
2022-11-20T19:56:38.318Z,83.77
2022-11-20T19:59:04.856Z,83.91
2022-11-20T20:01:31.990Z,83.92
2022-11-20T20:04:05.070Z,83.45
2022-11-20T20:06:33.108Z,84.10
2022-11-20T20:09:05.918Z,84.03
2022-11-20T20:11:34.105Z,83.89
2022-11-20T20:14:02.003Z,83.43
2022-11-20T20:16:28.898Z,83.77
2022-11-20T20:19:01.264Z,84.00
2022-11-20T20:21:30.842Z,84.63
2022-11-20T20:23:58.791Z,84.41
2022-11-20T20:26:27.175Z,84.33
2022-11-20T20:28:54.009Z,84.16
2022-11-20T20:31:22.906Z,84.37
2022-11-20T20:33:49.267Z,84.47
2022-11-20T20:36:17.393Z,84.51
2022-11-20T20:38:45.889Z,84.04
2022-11-20T20:41:18.730Z,84.41
2022-11-20T20:44:03.696Z,84.65
2022-11-20T20:46:30.193Z,84.15
2022-11-20T20:48:56.563Z,84.29
2022-11-20T20:51:23.106Z,84.35
2022-11-20T20:53:50.372Z,84.48
2022-11-20T20:56:17.533Z,84.30
2022-11-20T20:58:44.107Z,84.71
2022-11-20T21:01:13.431Z,84.45
2022-11-20T21:03:40.280Z,84.57
2022-11-20T21:06:08.052Z,84.79
2022-11-20T21:08:36.117Z,84.73
2022-11-20T21:11:11.334Z,84.90
2022-11-20T21:13:39.536Z,85.21
2022-11-20T21:16:06.639Z,84.58
2022-11-20T21:18:33.556Z,85.13
2022-11-20T21:21:19.205Z,84.62
2022-11-20T21:23:47.394Z,85.58
2022-11-20T21:26:15.782Z,84.66
2022-11-20T21:28:42.565Z,84.74
2022-11-20T21:31:15.226Z,84.58
2022-11-20T21:33:44.290Z,84.49
2022-11-20T21:36:14.542Z,84.52
2022-11-20T21:38:40.970Z,84.55
2022-11-20T21:41:10.613Z,84.44
2022-11-20T21:43:37.272Z,84.35
2022-11-20T21:46:15.334Z,84.26
2022-11-20T21:48:43.737Z,84.06
2022-11-20T21:51:18.702Z,84.34
2022-11-20T21:53:46.173Z,84.04
2022-11-20T21:56:18.971Z,84.25
2022-11-20T21:58:47.046Z,83.97
2022-11-20T22:01:16.067Z,84.31
2022-11-20T22:03:43.334Z,83.74
2022-11-20T22:06:10.214Z,84.25
2022-11-20T22:08:37.705Z,84.02
2022-11-20T22:11:07.357Z,83.46
2022-11-20T22:13:52.940Z,83.70
2022-11-20T22:16:19.318Z,83.31
2022-11-20T22:18:48.297Z,83.57
2022-11-20T22:21:16.636Z,83.52
2022-11-20T22:23:43.077Z,83.07
2022-11-20T22:26:11.891Z,83.66
2022-11-20T22:28:39.147Z,83.56
2022-11-20T22:31:08.185Z,83.55
2022-11-20T22:33:36.601Z,83.42
2022-11-20T22:36:08.873Z,83.46
2022-11-20T22:38:39.499Z,83.60
2022-11-20T22:41:07.321Z,83.51
2022-11-20T22:43:34.257Z,83.97
2022-11-20T22:46:04.375Z,84.11
2022-11-20T22:48:30.845Z,84.23
2022-11-20T22:51:14.674Z,84.11
2022-11-20T22:53:42.958Z,84.35
2022-11-20T22:56:14.894Z,84.93
2022-11-20T22:58:43.643Z,85.30
2022-11-20T23:01:18.985Z,85.06
2022-11-20T23:03:48.242Z,84.89
2022-11-20T23:06:16.780Z,85.34
2022-11-20T23:08:43.318Z,85.79
2022-11-20T23:11:12.437Z,85.70
2022-11-20T23:13:39.463Z,86.28
2022-11-20T23:16:14.661Z,86.03
2022-11-20T23:18:42.098Z,86.36
2022-11-20T23:21:14.489Z,85.98
2022-11-20T23:23:41.357Z,86.37
2022-11-20T23:26:13.431Z,86.66
2022-11-20T23:28:40.785Z,86.23
2022-11-20T23:31:08.532Z,86.12
2022-11-20T23:33:36.085Z,86.22
2022-11-20T23:36:02.680Z,86.20
2022-11-20T23:38:29.058Z,86.84
2022-11-20T23:40:55.453Z,86.96
2022-11-20T23:43:22.554Z,86.94
2022-11-20T23:45:51.720Z,86.88
2022-11-20T23:48:18.958Z,86.61
2022-11-20T23:50:45.813Z,86.35
2022-11-20T23:53:14.365Z,86.72
2022-11-20T23:55:48.904Z,86.68
2022-11-20T23:58:15.811Z,86.47
